createdAt,value
2023-04-22T00:01:26.028Z,8.45
2023-04-22T00:04:48.100Z,6.80
2023-04-22T00:08:10.178Z,9.60
2023-04-22T00:11:34.074Z,10.05
2023-04-22T00:14:55.827Z,9.50
2023-04-22T00:18:22.223Z,6.55
2023-04-22T00:21:46.524Z,6.97
2023-04-22T00:25:10.667Z,8.48
2023-04-22T00:28:32.844Z,8.32
2023-04-22T00:31:57.232Z,7.13
2023-04-22T00:35:21.407Z,6.30
2023-04-22T00:38:48.398Z,9.27
2023-04-22T00:42:12.813Z,11.55
2023-04-22T00:45:39.707Z,11.40
2023-04-22T00:49:01.414Z,8.18
2023-04-22T00:52:23.069Z,9.77
2023-04-22T00:55:47.087Z,11.30
2023-04-22T00:59:09.981Z,12.15
2023-04-22T01:02:32.228Z,8.93
2023-04-22T01:05:56.516Z,7.22
2023-04-22T01:09:20.920Z,7.28
2023-04-22T01:12:42.496Z,8.77
2023-04-22T01:16:06.216Z,7.82
2023-04-22T01:19:29.396Z,7.57
2023-04-22T01:22:53.653Z,7.82
2023-04-22T01:26:15.284Z,8.68
2023-04-22T01:29:38.865Z,6.57
2023-04-22T01:33:03.756Z,7.90
2023-04-22T01:36:25.992Z,9.13
2023-04-22T01:39:50.581Z,8.93
2023-04-22T01:43:14.625Z,6.60
2023-04-22T01:46:36.566Z,7.40
2023-04-22T01:50:00.667Z,6.47
2023-04-22T01:53:22.305Z,8.98
2023-04-22T01:56:53.272Z,9.82
2023-04-22T02:00:17.243Z,5.82
2023-04-22T02:03:39.254Z,10.50
2023-04-22T02:07:00.878Z,8.00
2023-04-22T02:10:24.860Z,6.40
2023-04-22T02:13:46.533Z,5.95
2023-04-22T02:17:10.915Z,8.90
2023-04-22T02:20:34.831Z,6.22
2023-04-22T02:23:56.459Z,7.70
2023-04-22T02:27:18.104Z,9.30
2023-04-22T02:30:41.989Z,8.70
2023-04-22T02:34:03.709Z,8.15
2023-04-22T02:37:25.501Z,5.38
2023-04-22T02:40:47.159Z,7.05
2023-04-22T02:44:11.203Z,7.72
2023-04-22T02:47:32.876Z,6.47
2023-04-22T02:50:54.542Z,6.78
2023-04-22T02:54:18.575Z,6.28
2023-04-22T02:57:42.756Z,6.03
2023-04-22T03:01:06.637Z,7.78
2023-04-22T03:04:30.892Z,6.18
2023-04-22T03:07:57.511Z,6.65
2023-04-22T03:11:19.156Z,8.32
2023-04-22T03:14:45.763Z,30.40
2023-04-22T03:18:07.821Z,36.55
2023-04-22T03:21:32.267Z,12.40
2023-04-22T03:24:53.889Z,8.70
2023-04-22T03:28:15.468Z,7.60
2023-04-22T03:31:37.768Z,8.68
2023-04-22T03:35:01.743Z,7.70
2023-04-22T03:38:25.595Z,5.72
2023-04-22T03:41:49.495Z,5.55
2023-04-22T03:45:11.296Z,5.90
2023-04-22T03:48:35.862Z,6.90
2023-04-22T03:52:02.582Z,8.60
2023-04-22T03:55:24.206Z,6.03
2023-04-22T03:58:48.049Z,6.00
2023-04-22T04:02:12.212Z,8.05
2023-04-22T04:05:36.604Z,9.13
2023-04-22T04:08:58.591Z,7.85
2023-04-22T04:12:20.287Z,8.68
2023-04-22T04:15:44.510Z,6.30
2023-04-22T04:19:06.956Z,6.18
2023-04-22T04:22:30.963Z,5.75
2023-04-22T04:25:52.691Z,7.63
2023-04-22T04:29:20.247Z,6.18
2023-04-22T04:32:43.053Z,4.87
2023-04-22T04:36:05.473Z,6.47
2023-04-22T04:39:29.217Z,7.47
2023-04-22T04:42:55.766Z,6.97
2023-04-22T04:46:17.483Z,5.85
2023-04-22T04:49:39.952Z,6.07
2023-04-22T04:53:02.486Z,7.38
2023-04-22T04:56:28.859Z,6.55
2023-04-22T04:59:50.458Z,7.20
2023-04-22T05:03:12.236Z,5.88
2023-04-22T05:06:38.708Z,6.38
2023-04-22T05:10:03.041Z,9.40
2023-04-22T05:13:27.676Z,7.05
2023-04-22T05:16:51.596Z,5.68
2023-04-22T05:20:13.499Z,9.45
2023-04-22T05:23:35.090Z,6.05
2023-04-22T05:26:57.537Z,6.20
2023-04-22T05:30:19.476Z,5.18
2023-04-22T05:33:41.071Z,6.30
2023-04-22T05:37:06.111Z,4.75
2023-04-22T05:40:30.392Z,10.57
2023-04-22T05:43:54.766Z,9.30
2023-04-22T05:47:18.674Z,4.95
2023-04-22T05:50:40.312Z,5.45
2023-04-22T05:54:05.529Z,7.85
2023-04-22T05:57:29.368Z,5.50
2023-04-22T06:00:51.016Z,4.70
2023-04-22T06:04:12.736Z,6.75
2023-04-22T06:07:34.517Z,5.78
2023-04-22T06:10:58.789Z,5.30
2023-04-22T06:14:22.849Z,8.13
2023-04-22T06:17:45.650Z,4.43
2023-04-22T06:21:09.922Z,4.35
2023-04-22T06:24:33.553Z,6.07
2023-04-22T06:27:55.340Z,3.22
2023-04-22T06:31:21.061Z,4.88
2023-04-22T06:34:47.432Z,4.47
2023-04-22T06:38:11.463Z,4.43
2023-04-22T06:41:33.279Z,3.28
2023-04-22T06:44:54.905Z,4.55
2023-04-22T06:48:16.606Z,4.50
2023-04-22T06:51:40.300Z,4.45
2023-04-22T06:55:03.584Z,4.45
2023-04-22T06:58:27.552Z,4.78
2023-04-22T07:01:51.606Z,4.50
2023-04-22T07:05:13.236Z,4.57
2023-04-22T07:08:34.839Z,3.00
2023-04-22T07:11:57.907Z,4.07
2023-04-22T07:15:24.048Z,3.45
2023-04-22T07:18:45.829Z,6.18
2023-04-22T07:22:07.752Z,3.42
2023-04-22T07:25:29.464Z,3.17
2023-04-22T07:28:55.921Z,3.05
2023-04-22T07:32:19.868Z,3.08
2023-04-22T07:35:41.523Z,4.05
2023-04-22T07:39:05.763Z,4.22
2023-04-22T07:42:27.364Z,1.83
2023-04-22T07:45:51.618Z,2.42
2023-04-22T07:49:17.258Z,2.42
2023-04-22T07:52:38.857Z,2.28
2023-04-22T07:56:02.215Z,4.15
2023-04-22T07:59:24.327Z,3.15
2023-04-22T08:02:47.548Z,4.05
2023-04-22T08:06:19.581Z,3.40
2023-04-22T08:09:43.628Z,3.05
2023-04-22T08:13:06.081Z,3.88
2023-04-22T08:16:27.968Z,2.58
2023-04-22T08:19:49.848Z,2.72
2023-04-22T08:23:11.533Z,2.25
2023-04-22T08:26:36.480Z,2.58
2023-04-22T08:29:58.102Z,5.65
2023-04-22T08:33:19.711Z,4.15
2023-04-22T08:36:41.899Z,3.88
2023-04-22T08:40:06.098Z,2.10
2023-04-22T08:43:27.954Z,3.53
2023-04-22T08:46:51.943Z,3.53
2023-04-22T08:50:14.182Z,3.00
2023-04-22T08:53:35.836Z,3.13
2023-04-22T08:56:57.774Z,2.40
2023-04-22T09:00:19.553Z,2.85
2023-04-22T09:03:42.410Z,3.30
2023-04-22T09:07:07.352Z,3.78
2023-04-22T09:10:34.011Z,3.20
2023-04-22T09:13:58.408Z,2.93
2023-04-22T09:17:31.289Z,2.50
2023-04-22T09:20:57.622Z,3.15
2023-04-22T09:24:21.821Z,2.15
2023-04-22T09:27:43.522Z,2.83
2023-04-22T09:31:05.481Z,3.10
2023-04-22T09:34:30.165Z,2.30
2023-04-22T09:37:52.503Z,2.30
2023-04-22T09:41:19.103Z,2.83
2023-04-22T09:44:46.228Z,2.20
2023-04-22T09:48:10.425Z,3.20
2023-04-22T09:51:32.237Z,3.22
2023-04-22T09:54:54.534Z,2.28
2023-04-22T09:58:23.863Z,3.17
2023-04-22T10:01:45.596Z,6.43
2023-04-22T10:05:12.890Z,5.00
2023-04-22T10:08:36.994Z,2.80
2023-04-22T10:11:59.702Z,2.72
2023-04-22T10:15:21.686Z,2.72
2023-04-22T10:18:44.450Z,2.45
2023-04-22T10:22:07.512Z,3.53
2023-04-22T10:25:32.449Z,2.70
2023-04-22T10:28:54.062Z,3.60
2023-04-22T10:32:18.524Z,2.83
2023-04-22T10:36:08.708Z,3.67
2023-04-22T10:39:37.524Z,3.70
2023-04-22T10:43:03.460Z,2.63
2023-04-22T10:46:42.513Z,2.05
2023-04-22T10:50:18.703Z,3.67
2023-04-22T10:53:46.468Z,3.50
2023-04-22T10:57:11.536Z,2.25
2023-04-22T11:00:52.488Z,4.63
2023-04-22T11:04:23.276Z,4.47
2023-04-22T11:07:48.105Z,4.13
2023-04-22T11:11:11.209Z,2.40
2023-04-22T11:14:33.400Z,2.33
2023-04-22T11:17:55.551Z,2.30
2023-04-22T11:21:18.063Z,2.88
2023-04-22T11:24:53.053Z,2.38
2023-04-22T11:28:15.038Z,2.75
2023-04-22T11:31:36.760Z,3.35
2023-04-22T11:34:58.570Z,3.13
2023-04-22T11:38:22.206Z,2.70
2023-04-22T11:41:44.066Z,4.53
2023-04-22T11:45:06.832Z,3.00
2023-04-22T11:48:28.421Z,2.40
2023-04-22T11:51:55.217Z,3.83
2023-04-22T11:55:30.222Z,2.90
2023-04-22T11:58:51.852Z,2.50
2023-04-22T12:02:13.806Z,2.40
2023-04-22T12:05:42.260Z,2.35
2023-04-22T12:09:04.005Z,3.13
2023-04-22T12:12:32.861Z,3.28
2023-04-22T12:15:58.741Z,2.42
2023-04-22T12:19:26.083Z,2.28
2023-04-22T12:22:55.423Z,2.97
2023-04-22T12:26:26.575Z,2.45
2023-04-22T12:29:58.570Z,2.83
2023-04-22T12:33:20.158Z,2.63
2023-04-22T12:36:41.969Z,3.58
2023-04-22T12:40:04.841Z,2.22
2023-04-22T12:43:26.494Z,3.47
2023-04-22T12:46:48.213Z,5.13
2023-04-22T12:50:10.005Z,2.40
2023-04-22T12:53:31.709Z,3.22
2023-04-22T12:56:56.006Z,6.85
2023-04-22T13:00:18.418Z,2.95
2023-04-22T13:03:40.078Z,2.42
2023-04-22T13:07:04.223Z,3.60
2023-04-22T13:10:28.246Z,3.83
2023-04-22T13:13:51.902Z,2.40
2023-04-22T13:17:16.310Z,2.40
2023-04-22T13:20:37.955Z,2.97
2023-04-22T13:24:01.755Z,2.60
2023-04-22T13:27:23.404Z,2.20
2023-04-22T13:30:45.399Z,2.35
2023-04-22T13:34:07.717Z,6.30
2023-04-22T13:37:29.348Z,3.10
2023-04-22T13:40:50.937Z,2.30
2023-04-22T13:44:12.719Z,3.65
2023-04-22T13:47:34.434Z,3.83
2023-04-22T13:50:58.338Z,3.58
2023-04-22T13:54:19.992Z,2.80
2023-04-22T13:57:46.655Z,2.30
2023-04-22T14:01:08.657Z,2.30
2023-04-22T14:04:33.211Z,2.47
2023-04-22T14:07:59.473Z,5.65
2023-04-22T14:11:21.079Z,2.55
2023-04-22T14:14:42.744Z,2.28
2023-04-22T14:18:04.990Z,2.40
2023-04-22T14:21:27.708Z,2.33
2023-04-22T14:24:52.444Z,2.35
2023-04-22T14:28:15.767Z,3.33
2023-04-22T14:31:37.437Z,4.45
2023-04-22T14:34:59.014Z,8.70
2023-04-22T14:38:21.695Z,2.10
2023-04-22T14:41:46.156Z,2.25
2023-04-22T14:45:10.511Z,3.13
2023-04-22T14:48:32.587Z,2.58
2023-04-22T14:51:54.271Z,3.40
2023-04-22T14:55:23.145Z,4.35
2023-04-22T14:58:45.813Z,2.22
2023-04-22T15:02:15.907Z,2.40
2023-04-22T15:05:37.722Z,2.28
2023-04-22T15:09:01.634Z,2.20
2023-04-22T15:12:23.265Z,3.05
2023-04-22T15:15:47.346Z,2.35
2023-04-22T15:19:09.400Z,2.60
2023-04-22T15:22:31.955Z,2.60
2023-04-22T15:25:56.039Z,1.98
2023-04-22T15:29:17.959Z,3.20
2023-04-22T15:32:39.834Z,2.83
2023-04-22T15:36:04.148Z,2.85
2023-04-22T15:39:25.923Z,2.22
2023-04-22T15:42:47.534Z,3.30
2023-04-22T15:46:12.029Z,2.72
2023-04-22T15:49:36.119Z,2.22
2023-04-22T15:52:57.732Z,2.72
2023-04-22T15:56:24.060Z,3.33
2023-04-22T15:59:46.912Z,4.40
2023-04-22T16:03:12.012Z,3.58
2023-04-22T16:06:33.794Z,2.75
2023-04-22T16:09:57.855Z,4.28
2023-04-22T16:13:21.952Z,2.45
2023-04-22T16:16:43.709Z,2.65
2023-04-22T16:20:08.956Z,2.50
2023-04-22T16:23:33.665Z,3.60
2023-04-22T16:26:58.369Z,2.58
2023-04-22T16:30:20.001Z,4.25
2023-04-22T16:33:41.941Z,3.60
2023-04-22T16:37:04.209Z,2.97
2023-04-22T16:40:25.960Z,3.28
2023-04-22T16:43:52.381Z,3.00
2023-04-22T16:47:13.990Z,3.00
2023-04-22T16:50:40.718Z,4.30
2023-04-22T16:54:02.291Z,2.95
2023-04-22T16:57:26.371Z,3.58
2023-04-22T17:00:50.476Z,3.60
2023-04-22T17:04:12.222Z,3.00
2023-04-22T17:07:33.900Z,2.90
2023-04-22T17:10:55.439Z,3.65
2023-04-22T17:14:17.176Z,4.60
2023-04-22T17:17:38.845Z,3.00
2023-04-22T17:21:01.087Z,2.38
2023-04-22T17:24:25.160Z,3.55
2023-04-22T17:27:49.800Z,4.38
2023-04-22T17:31:14.255Z,2.97
2023-04-22T17:34:39.193Z,3.28
2023-04-22T17:38:01.041Z,2.92
2023-04-22T17:41:22.659Z,5.38
2023-04-22T17:44:44.258Z,3.72
2023-04-22T17:48:08.455Z,6.15
2023-04-22T17:51:32.375Z,4.38
2023-04-22T17:54:53.956Z,2.58
2023-04-22T17:58:15.602Z,3.97
2023-04-22T18:01:43.024Z,3.50
2023-04-22T18:05:10.380Z,4.78
2023-04-22T18:08:31.979Z,6.15
2023-04-22T18:12:00.226Z,4.53
2023-04-22T18:15:24.220Z,4.97
2023-04-22T18:18:48.187Z,5.18
2023-04-22T18:22:10.477Z,4.40
2023-04-22T18:25:32.381Z,8.93
2023-04-22T18:28:54.062Z,4.53
2023-04-22T18:32:16.995Z,12.57
2023-04-22T18:35:42.378Z,4.63
2023-04-22T18:39:05.536Z,6.38
2023-04-22T18:42:29.620Z,6.32
2023-04-22T18:45:51.231Z,5.57
2023-04-22T18:49:15.320Z,5.03
2023-04-22T18:52:40.225Z,4.38
2023-04-22T18:56:01.981Z,4.15
2023-04-22T18:59:23.522Z,4.43
2023-04-22T19:02:47.503Z,6.13
2023-04-22T19:06:09.332Z,5.68
2023-04-22T19:09:36.383Z,4.47
2023-04-22T19:13:00.067Z,6.00
2023-04-22T19:16:26.227Z,5.45
2023-04-22T19:19:48.098Z,7.35
2023-04-22T19:23:10.033Z,5.18
2023-04-22T19:26:32.264Z,6.13
2023-04-22T19:29:53.832Z,7.90
2023-04-22T19:33:17.780Z,6.38
2023-04-22T19:36:41.909Z,9.57
2023-04-22T19:40:04.391Z,8.05
2023-04-22T19:43:26.407Z,8.82
2023-04-22T19:46:50.643Z,5.97
2023-04-22T19:50:16.589Z,6.07
2023-04-22T19:53:39.183Z,5.28
2023-04-22T19:57:02.265Z,5.32
2023-04-22T20:00:24.445Z,6.70
2023-04-22T20:03:49.508Z,6.88
2023-04-22T20:07:14.240Z,8.88
2023-04-22T20:10:37.009Z,6.13
2023-04-22T20:14:01.742Z,4.45
2023-04-22T20:17:27.268Z,7.22
2023-04-22T20:20:49.514Z,4.35
2023-04-22T20:24:19.983Z,4.63
2023-04-22T20:27:44.475Z,6.28
2023-04-22T20:31:06.239Z,6.22
2023-04-22T20:34:36.049Z,9.60
2023-04-22T20:38:00.390Z,3.95
2023-04-22T20:41:26.339Z,4.88
2023-04-22T20:44:50.396Z,6.32
2023-04-22T20:48:11.994Z,4.30
2023-04-22T20:51:33.830Z,5.95
2023-04-22T20:54:58.536Z,5.80
2023-04-22T20:58:20.511Z,5.78
2023-04-22T21:01:42.485Z,5.25
2023-04-22T21:05:07.131Z,4.97
2023-04-22T21:08:33.906Z,5.93
2023-04-22T21:12:03.268Z,9.15
2023-04-22T21:15:25.139Z,6.63
2023-04-22T21:18:47.625Z,4.15
2023-04-22T21:22:12.407Z,5.35
2023-04-22T21:25:39.651Z,4.18
2023-04-22T21:29:01.466Z,7.82
2023-04-22T21:32:23.246Z,5.40
2023-04-22T21:35:47.224Z,6.25
2023-04-22T21:42:45.778Z,5.78
2023-04-22T21:46:07.635Z,6.88
2023-04-22T21:49:29.312Z,7.50
2023-04-22T21:52:51.410Z,5.82
2023-04-22T21:56:12.980Z,7.18
2023-04-22T21:59:34.621Z,6.95
2023-04-22T22:02:58.585Z,8.63
2023-04-22T22:06:22.620Z,7.50
2023-04-22T22:09:45.158Z,6.68
2023-04-22T22:13:06.741Z,8.55
2023-04-22T22:16:28.569Z,8.55
2023-04-22T22:19:50.188Z,5.85
2023-04-22T22:23:14.485Z,8.18
2023-04-22T22:26:37.134Z,7.28
2023-04-22T22:29:58.745Z,6.40
2023-04-22T22:33:25.341Z,8.15
2023-04-22T22:36:46.989Z,6.03
2023-04-22T22:40:11.544Z,6.88
2023-04-22T22:43:33.292Z,8.05
2023-04-22T22:46:55.157Z,6.13
2023-04-22T22:50:19.280Z,5.55
2023-04-22T22:53:44.402Z,5.55
2023-04-22T22:57:08.984Z,5.32
2023-04-22T23:00:32.922Z,4.70
2023-04-22T23:03:54.936Z,6.00
2023-04-22T23:07:18.878Z,8.13
2023-04-22T23:10:42.748Z,8.15
2023-04-22T23:14:04.585Z,5.88
2023-04-22T23:17:26.207Z,8.25
2023-04-22T23:20:50.682Z,5.22
2023-04-22T23:24:14.756Z,7.55
2023-04-22T23:27:36.909Z,8.38
2023-04-22T23:30:58.920Z,5.72
2023-04-22T23:34:25.365Z,7.30
2023-04-22T23:37:50.788Z,5.43
2023-04-22T23:41:14.925Z,10.73
2023-04-22T23:44:36.556Z,6.75
2023-04-22T23:47:58.160Z,5.88
2023-04-22T23:51:22.052Z,5.57
2023-04-22T23:54:47.370Z,6.43
2023-04-22T23:58:11.538Z,5.43
